createdAt,value
2023-02-26T00:00:54.618Z,0.6
2023-02-26T00:02:04.378Z,0.6
2023-02-26T00:03:14.033Z,0.5
2023-02-26T00:04:23.695Z,0.5
2023-02-26T00:05:33.388Z,0.6
2023-02-26T00:06:43.079Z,0.6
2023-02-26T00:07:52.766Z,0.6
2023-02-26T00:09:02.501Z,0.4
2023-02-26T00:10:12.190Z,0.6
2023-02-26T00:11:21.848Z,0.8
2023-02-26T00:12:31.591Z,0.5
2023-02-26T00:13:41.330Z,0.5
2023-02-26T00:14:50.975Z,0.6
2023-02-26T00:16:00.645Z,0.6
2023-02-26T00:17:10.764Z,0.7
2023-02-26T00:18:20.099Z,0.6
2023-02-26T00:19:29.762Z,0.4
2023-02-26T00:20:39.424Z,0.6
2023-02-26T00:21:49.196Z,0.7
2023-02-26T00:22:58.995Z,0.6
2023-02-26T00:24:08.713Z,0.7
2023-02-26T00:25:18.434Z,0.6
2023-02-26T00:26:28.482Z,0.7
2023-02-26T00:27:37.985Z,0.7
2023-02-26T00:28:47.688Z,0.8
2023-02-26T00:29:57.407Z,0.6
2023-02-26T00:31:07.155Z,0.8
2023-02-26T00:32:16.973Z,0.5
2023-02-26T00:33:26.513Z,0.5
2023-02-26T00:34:36.269Z,0.8
2023-02-26T00:35:45.977Z,0.6
2023-02-26T00:36:55.700Z,0.5
2023-02-26T00:38:05.438Z,0.6
2023-02-26T00:39:15.155Z,0.5
2023-02-26T00:40:24.906Z,0.5
2023-02-26T00:41:34.642Z,0.8
2023-02-26T00:42:44.341Z,0.6
2023-02-26T00:43:54.054Z,0.6
2023-02-26T00:45:03.783Z,0.7
2023-02-26T00:46:13.588Z,0.5
2023-02-26T00:47:23.304Z,1
2023-02-26T00:48:32.975Z,0.6
2023-02-26T00:49:42.749Z,0.6
2023-02-26T00:50:52.381Z,0.6
2023-02-26T00:52:02.068Z,0.9
2023-02-26T00:53:11.769Z,0.9
2023-02-26T00:54:21.429Z,0.6
2023-02-26T00:55:31.106Z,0.5
2023-02-26T00:56:40.755Z,0.7
2023-02-26T00:57:49.502Z,0.5
2023-02-26T00:58:59.193Z,0.6
2023-02-26T01:00:08.885Z,0.6
2023-02-26T01:01:18.638Z,0.9
2023-02-26T01:02:28.281Z,0.6
2023-02-26T01:03:38.022Z,0.9
2023-02-26T01:04:47.704Z,0.6
2023-02-26T01:05:57.399Z,0.9
2023-02-26T01:07:07.110Z,0.5
2023-02-26T01:08:16.841Z,1
2023-02-26T01:09:26.549Z,0.7
2023-02-26T01:10:36.337Z,0.7
2023-02-26T01:11:46.013Z,0.8
2023-02-26T01:12:55.779Z,0.8
2023-02-26T01:14:05.536Z,0.7
2023-02-26T01:15:14.343Z,0.7
2023-02-26T01:16:24.220Z,0.5
2023-02-26T01:17:33.868Z,0.9
2023-02-26T01:18:43.560Z,0.6
2023-02-26T01:19:53.253Z,0.7
2023-02-26T01:21:02.886Z,0.7
2023-02-26T01:22:12.612Z,0.8
2023-02-26T01:23:22.302Z,0.9
2023-02-26T01:24:31.970Z,0.6
2023-02-26T01:25:41.623Z,0.6
2023-02-26T01:26:51.398Z,0.6
2023-02-26T01:28:01.023Z,0.8
2023-02-26T01:29:10.684Z,0.8
2023-02-26T01:30:20.383Z,0.7
2023-02-26T01:31:30.154Z,0.6
2023-02-26T01:32:40.875Z,0.7
2023-02-26T01:33:50.504Z,0.8
2023-02-26T01:35:00.190Z,0.7
2023-02-26T01:36:09.861Z,0.8
2023-02-26T01:37:19.540Z,0.8
2023-02-26T01:38:29.225Z,0.6
2023-02-26T01:39:38.901Z,0.6
2023-02-26T01:40:48.581Z,0.7
2023-02-26T01:41:58.277Z,0.7
2023-02-26T01:43:07.952Z,0.6
2023-02-26T01:44:17.668Z,0.5
2023-02-26T01:45:27.329Z,0.6
2023-02-26T01:46:37.036Z,0.7
2023-02-26T01:47:46.696Z,0.6
2023-02-26T01:48:56.361Z,0.7
2023-02-26T01:50:06.031Z,0.4
2023-02-26T01:51:15.722Z,0.8
2023-02-26T01:52:25.400Z,0.5
2023-02-26T01:53:35.071Z,0.6
2023-02-26T01:54:44.838Z,0.4
2023-02-26T01:55:54.467Z,0.7
2023-02-26T01:57:04.136Z,0.6
2023-02-26T01:58:13.868Z,0.7
2023-02-26T01:59:23.572Z,0.4
2023-02-26T02:00:33.281Z,0.5
2023-02-26T02:01:42.890Z,0.4
2023-02-26T02:02:52.690Z,0.7
2023-02-26T02:04:02.273Z,0.7
2023-02-26T02:05:11.959Z,0.7
2023-02-26T02:06:21.605Z,0.5
2023-02-26T02:07:31.302Z,0.4
2023-02-26T02:08:41.028Z,0.4
2023-02-26T02:09:50.717Z,0.5
2023-02-26T02:11:00.471Z,0.5
2023-02-26T02:12:10.126Z,0.6
2023-02-26T02:13:19.848Z,0.4
2023-02-26T02:14:29.524Z,0.6
2023-02-26T02:15:39.228Z,0.5
2023-02-26T02:16:48.996Z,0.7
2023-02-26T02:17:58.605Z,0.5
2023-02-26T02:19:08.299Z,0.4
2023-02-26T02:20:17.977Z,0.5
2023-02-26T02:21:27.674Z,0.5
2023-02-26T02:22:37.380Z,0.6
2023-02-26T02:23:47.118Z,0.8
2023-02-26T02:24:56.767Z,0.6
2023-02-26T02:26:06.493Z,0.9
2023-02-26T02:27:16.182Z,0.7
2023-02-26T02:28:25.837Z,0.5
2023-02-26T02:29:35.542Z,0.5
2023-02-26T02:30:45.271Z,0.8
2023-02-26T02:31:55.073Z,0.6
2023-02-26T02:33:04.637Z,0.5
2023-02-26T02:34:14.351Z,0.6
2023-02-26T02:35:24.033Z,0.3
2023-02-26T02:36:33.704Z,0.9
2023-02-26T02:37:43.437Z,0.4
2023-02-26T02:38:53.230Z,0.5
2023-02-26T02:40:02.907Z,0.4
2023-02-26T02:41:12.609Z,0.6
2023-02-26T02:42:22.349Z,0.4
2023-02-26T02:43:32.084Z,0.4
2023-02-26T02:44:41.789Z,0.5
2023-02-26T02:45:51.619Z,0.6
2023-02-26T02:47:01.264Z,0.4
2023-02-26T02:48:10.936Z,0.3
2023-02-26T02:49:20.612Z,0.6
2023-02-26T02:50:30.292Z,0.4
2023-02-26T02:51:39.984Z,0.5
2023-02-26T02:52:49.691Z,0.4
2023-02-26T02:54:00.433Z,0.4
2023-02-26T02:55:10.081Z,0.3
2023-02-26T02:56:19.821Z,0.4
2023-02-26T02:57:29.588Z,0.4
2023-02-26T02:58:39.293Z,0.4
2023-02-26T02:59:49.031Z,0.3
2023-02-26T03:00:59.723Z,0.4
2023-02-26T03:02:09.478Z,0.3
2023-02-26T03:03:19.212Z,0.4
2023-02-26T03:04:28.879Z,0.5
2023-02-26T03:05:38.544Z,0.5
2023-02-26T03:06:48.280Z,0.5
2023-02-26T03:07:58.052Z,0.5
2023-02-26T03:09:07.786Z,0.4
2023-02-26T03:10:17.482Z,0.5
2023-02-26T03:11:27.183Z,0.4
2023-02-26T03:12:36.885Z,0.7
2023-02-26T03:13:46.591Z,0.5
2023-02-26T03:14:56.384Z,0.5
2023-02-26T03:16:06.127Z,0.5
2023-02-26T03:17:15.776Z,0.3
2023-02-26T03:18:25.607Z,0.3
2023-02-26T03:19:35.188Z,0.4
2023-02-26T03:20:44.874Z,0.4
2023-02-26T03:21:54.690Z,0.4
2023-02-26T03:23:04.399Z,0.7
2023-02-26T03:24:14.160Z,0.3
2023-02-26T03:25:23.834Z,0.5
2023-02-26T03:26:33.562Z,0.3
2023-02-26T03:27:43.236Z,0.4
2023-02-26T03:28:53.023Z,0.3
2023-02-26T03:30:02.774Z,0.4
2023-02-26T03:31:12.627Z,0.3
2023-02-26T03:32:22.351Z,0.4
2023-02-26T03:33:31.937Z,0.6
2023-02-26T03:34:41.617Z,0.6
2023-02-26T03:35:51.416Z,0.3
2023-02-26T03:37:01.019Z,0.4
2023-02-26T03:38:10.710Z,0.4
2023-02-26T03:39:20.387Z,0.4
2023-02-26T03:40:30.063Z,0.5
2023-02-26T03:41:39.737Z,0.5
2023-02-26T03:42:49.401Z,0.6
2023-02-26T03:43:59.066Z,0.5
2023-02-26T03:45:09.684Z,0.6
2023-02-26T03:46:19.416Z,0.5
2023-02-26T03:47:29.014Z,0.5
2023-02-26T03:48:38.767Z,0.5
2023-02-26T03:49:48.377Z,0.5
2023-02-26T03:50:58.030Z,0.6
2023-02-26T03:52:07.699Z,0.5
2023-02-26T03:53:17.400Z,0.5
2023-02-26T03:54:27.051Z,0.7
2023-02-26T03:55:36.696Z,0.6
2023-02-26T03:56:46.405Z,0.5
2023-02-26T03:57:56.085Z,0.7
2023-02-26T03:59:06.749Z,0.4
2023-02-26T04:00:16.440Z,0.6
2023-02-26T04:01:26.132Z,0.7
2023-02-26T04:02:35.830Z,0.5
2023-02-26T04:03:45.519Z,0.7
2023-02-26T04:04:55.222Z,0.5
2023-02-26T04:06:04.904Z,0.5
2023-02-26T04:07:14.579Z,0.5
2023-02-26T04:08:24.302Z,0.7
2023-02-26T04:09:34.018Z,0.5
2023-02-26T04:10:43.727Z,0.6
2023-02-26T04:11:53.485Z,0.7
2023-02-26T04:13:03.209Z,0.5
2023-02-26T04:14:12.890Z,0.5
2023-02-26T04:15:22.639Z,0.6
2023-02-26T04:16:32.352Z,0.6
2023-02-26T04:17:42.021Z,0.5
2023-02-26T04:18:51.716Z,0.5
2023-02-26T04:20:01.330Z,0.6
2023-02-26T04:21:11.016Z,0.5
2023-02-26T04:22:20.674Z,0.7
2023-02-26T04:23:30.356Z,0.7
2023-02-26T04:24:40.036Z,0.5
2023-02-26T04:25:49.724Z,0.6
2023-02-26T04:26:59.393Z,0.3
2023-02-26T04:28:09.075Z,0.7
2023-02-26T04:29:18.722Z,0.5
2023-02-26T04:30:28.463Z,0.5
2023-02-26T04:31:38.138Z,0.5
2023-02-26T04:32:47.761Z,0.5
2023-02-26T04:33:57.456Z,0.4
2023-02-26T04:35:07.097Z,0.6
2023-02-26T04:36:16.797Z,0.6
2023-02-26T04:37:26.496Z,0.4
2023-02-26T04:38:36.148Z,0.6
2023-02-26T04:39:45.804Z,0.5
2023-02-26T04:40:55.480Z,0.7
2023-02-26T04:42:05.141Z,0.6
2023-02-26T04:43:14.814Z,0.7
2023-02-26T04:44:24.494Z,0.8
2023-02-26T04:45:34.217Z,0.7
2023-02-26T04:46:43.896Z,0.6
2023-02-26T04:47:53.545Z,0.7
2023-02-26T04:49:03.268Z,0.6
2023-02-26T04:50:12.991Z,0.8
2023-02-26T04:51:22.754Z,0.7
2023-02-26T04:52:32.507Z,0.8
2023-02-26T04:53:42.191Z,0.9
2023-02-26T04:54:51.868Z,0.8
2023-02-26T04:56:01.535Z,0.8
2023-02-26T04:57:11.227Z,1.1
2023-02-26T04:58:20.885Z,0.7
2023-02-26T04:59:30.593Z,0.6
2023-02-26T05:00:40.325Z,0.7
2023-02-26T05:01:49.996Z,0.5
2023-02-26T05:02:59.726Z,0.4
2023-02-26T05:04:09.492Z,0.7
2023-02-26T05:05:19.216Z,0.5
2023-02-26T05:06:28.919Z,0.7
2023-02-26T05:07:38.570Z,0.5
2023-02-26T05:08:48.297Z,0.8
2023-02-26T05:09:57.974Z,0.6
2023-02-26T05:11:07.683Z,0.5
2023-02-26T05:12:17.379Z,0.7
2023-02-26T05:13:27.055Z,0.7
2023-02-26T05:14:36.727Z,0.9
2023-02-26T05:15:46.508Z,0.8
2023-02-26T05:16:56.208Z,0.6
2023-02-26T05:18:05.886Z,0.9
2023-02-26T05:19:15.853Z,1.1
2023-02-26T05:20:25.534Z,0.8
2023-02-26T05:21:35.289Z,1
2023-02-26T05:22:45.048Z,0.8
2023-02-26T05:23:54.719Z,0.6
2023-02-26T05:25:04.396Z,0.6
2023-02-26T05:26:14.671Z,0.7
2023-02-26T05:27:24.369Z,0.6
2023-02-26T05:28:34.034Z,0.6
2023-02-26T05:29:43.741Z,0.8
2023-02-26T05:30:53.638Z,0.4
2023-02-26T05:32:03.162Z,0.5
2023-02-26T05:33:12.851Z,0.4
2023-02-26T05:34:22.662Z,0.5
2023-02-26T05:35:32.281Z,0.6
2023-02-26T05:36:43.129Z,0.6
2023-02-26T05:37:52.806Z,0.7
2023-02-26T05:39:02.617Z,0.5
2023-02-26T05:40:12.325Z,0.6
2023-02-26T05:41:22.070Z,0.5
2023-02-26T05:42:31.752Z,0.8
2023-02-26T05:43:41.500Z,0.6
2023-02-26T05:44:51.166Z,0.7
2023-02-26T05:46:00.872Z,0.6
2023-02-26T05:47:10.611Z,0.6
2023-02-26T05:48:20.316Z,0.6
2023-02-26T05:49:30.795Z,0.8
2023-02-26T05:50:40.466Z,0.5
2023-02-26T05:51:50.265Z,0.6
2023-02-26T05:52:59.975Z,0.6
2023-02-26T05:54:09.712Z,0.5
2023-02-26T05:55:19.397Z,0.7
2023-02-26T05:56:29.122Z,0.7
2023-02-26T05:57:38.846Z,0.5
2023-02-26T05:58:48.489Z,0.6
2023-02-26T05:59:58.193Z,0.9
2023-02-26T06:01:07.912Z,0.8
2023-02-26T06:02:17.715Z,0.8
2023-02-26T06:03:27.410Z,0.7
2023-02-26T06:04:37.170Z,0.5
2023-02-26T06:05:46.837Z,0.6
2023-02-26T06:06:56.540Z,0.8
2023-02-26T06:08:06.274Z,0.8
2023-02-26T06:09:15.985Z,0.8
2023-02-26T06:10:25.638Z,0.6
2023-02-26T06:11:35.380Z,0.5
2023-02-26T06:12:45.108Z,0.7
2023-02-26T06:13:54.821Z,0.6
2023-02-26T06:15:04.541Z,0.8
2023-02-26T06:16:14.263Z,0.6
2023-02-26T06:17:23.939Z,0.5
2023-02-26T06:18:33.688Z,0.6
2023-02-26T06:19:43.368Z,0.6
2023-02-26T06:20:53.041Z,0.7
2023-02-26T06:22:02.829Z,0.7
2023-02-26T06:23:12.442Z,0.7
2023-02-26T06:24:22.118Z,0.7
2023-02-26T06:25:31.786Z,0.7
2023-02-26T06:26:41.485Z,0.7
2023-02-26T06:27:51.208Z,0.6
2023-02-26T06:29:00.888Z,0.7
2023-02-26T06:30:10.666Z,0.4
2023-02-26T06:31:20.423Z,0.4
2023-02-26T06:32:30.824Z,0.7
2023-02-26T11:35:16.877Z,0
2023-02-26T11:36:26.895Z,1.1
2023-02-26T11:37:36.226Z,1.4
2023-02-26T11:38:43.923Z,1.2
2023-02-26T11:39:52.671Z,0.8
2023-02-26T11:41:02.354Z,1
2023-02-26T11:42:11.048Z,1.2
2023-02-26T11:43:21.727Z,1.1
2023-02-26T11:44:30.403Z,1.3
2023-02-26T11:45:38.114Z,1.3
2023-02-26T11:46:47.808Z,1.3
2023-02-26T11:47:55.507Z,1.1
2023-02-26T11:49:05.178Z,1
2023-02-26T11:50:14.923Z,1.3
2023-02-26T11:51:25.002Z,1
2023-02-26T11:52:34.268Z,1
2023-02-26T11:53:43.929Z,0.8
2023-02-26T11:54:51.599Z,1.2
2023-02-26T11:56:01.314Z,1.1
2023-02-26T11:57:11.030Z,1.1
2023-02-26T11:58:19.690Z,1.3
2023-02-26T11:59:29.385Z,0.9
2023-02-26T12:00:38.113Z,1.2
2023-02-26T12:01:47.773Z,1
2023-02-26T12:02:56.475Z,1.2
2023-02-26T12:04:04.168Z,1.2
2023-02-26T12:05:13.792Z,0.8
2023-02-26T12:06:22.448Z,0.6
2023-02-26T12:07:32.191Z,0.8
2023-02-26T12:08:41.849Z,1
2023-02-26T12:09:50.535Z,0.9
2023-02-26T12:11:00.219Z,0.9
2023-02-26T12:12:09.895Z,0.7
2023-02-26T12:13:17.543Z,0.6
2023-02-26T12:14:27.367Z,0.6
2023-02-26T12:15:35.007Z,0.7
2023-02-26T12:16:43.702Z,0.7
2023-02-26T12:17:53.410Z,0.6
2023-02-26T12:19:03.083Z,0.9
2023-02-26T12:20:12.747Z,0.5
2023-02-26T12:21:22.451Z,0.4
2023-02-26T12:22:32.129Z,0.6
2023-02-26T12:23:41.873Z,0.8
2023-02-26T12:24:50.487Z,0.5
2023-02-26T12:25:59.161Z,0.7
2023-02-26T12:27:08.850Z,0.9
2023-02-26T12:28:16.512Z,0.7
2023-02-26T12:29:26.206Z,0.8
2023-02-26T12:30:34.930Z,1.5
2023-02-26T12:31:43.742Z,2.2
2023-02-26T12:32:53.389Z,2.4
2023-02-26T12:34:03.059Z,1.5
2023-02-26T12:35:10.702Z,1.8
2023-02-26T12:36:20.363Z,1.8
2023-02-26T12:37:29.041Z,1.5
2023-02-26T12:38:35.717Z,1.1
2023-02-26T12:39:45.441Z,1.1
2023-02-26T12:40:53.103Z,1.5
2023-02-26T12:42:02.788Z,1.8
2023-02-26T12:43:12.486Z,2
2023-02-26T12:44:21.187Z,1.6
2023-02-26T12:45:30.873Z,1.7
2023-02-26T12:46:39.723Z,2.2
2023-02-26T12:47:47.309Z,1.9
2023-02-26T12:48:56.954Z,2.1
2023-02-26T12:50:05.642Z,2.1
2023-02-26T12:51:14.308Z,2.1
2023-02-26T12:52:23.966Z,2
2023-02-26T12:53:32.703Z,2
2023-02-26T12:54:42.380Z,1.9
2023-02-26T12:55:52.134Z,1.7
2023-02-26T12:56:59.799Z,1.4
2023-02-26T12:58:09.494Z,1.2
2023-02-26T12:59:17.210Z,0.9
2023-02-26T13:00:26.001Z,1.1
2023-02-26T13:01:34.554Z,1
2023-02-26T13:02:43.244Z,1.4
2023-02-26T13:03:52.970Z,1.7
2023-02-26T13:05:01.599Z,1.6
2023-02-26T13:06:10.241Z,1.9
2023-02-26T13:07:19.919Z,1.5
2023-02-26T13:08:28.616Z,1.5
2023-02-26T13:09:38.294Z,1.2
2023-02-26T13:10:48.127Z,1.2
2023-02-26T13:11:57.809Z,1.3
2023-02-26T13:13:07.459Z,1.3
2023-02-26T13:14:16.138Z,1.4
2023-02-26T13:15:23.850Z,1.4
2023-02-26T13:16:33.607Z,1
2023-02-26T13:17:41.153Z,1.1
2023-02-26T13:18:49.839Z,1
2023-02-26T13:19:59.501Z,1
2023-02-26T13:21:08.159Z,1.5
2023-02-26T13:22:17.835Z,1.2
2023-02-26T13:23:26.508Z,0.9
2023-02-26T13:24:35.228Z,0.9
2023-02-26T13:25:44.899Z,1.1
2023-02-26T13:26:53.581Z,1.2
2023-02-26T13:28:04.279Z,0.8
2023-02-26T13:29:13.916Z,1.3
2023-02-26T13:30:23.603Z,1
2023-02-26T13:31:33.710Z,1.1
2023-02-26T13:32:41.989Z,1.2
2023-02-26T13:33:49.623Z,1.5
2023-02-26T13:34:59.283Z,1.8
2023-02-26T13:36:07.997Z,1.5
2023-02-26T13:37:16.668Z,1.2
2023-02-26T13:38:25.408Z,1
2023-02-26T13:39:33.120Z,1.1
2023-02-26T13:40:42.792Z,1.2
2023-02-26T13:41:51.470Z,1.5
2023-02-26T13:43:00.119Z,1.5
2023-02-26T13:44:09.931Z,1.6
2023-02-26T13:45:19.579Z,2.4
2023-02-26T13:46:29.274Z,1.4
2023-02-26T13:47:38.969Z,1.4
2023-02-26T13:48:46.735Z,1.2
2023-02-26T13:49:56.393Z,1
2023-02-26T13:51:05.120Z,1.1
2023-02-26T13:52:14.853Z,0.9
2023-02-26T13:53:24.586Z,1.1
2023-02-26T13:54:32.216Z,1.2
2023-02-26T13:55:40.966Z,0.9
2023-02-26T13:56:50.627Z,0.7
2023-02-26T13:57:58.292Z,0.5
2023-02-26T13:59:07.995Z,1
2023-02-26T14:00:17.767Z,0.6
2023-02-26T14:01:25.917Z,0.7
2023-02-26T14:02:35.190Z,0.9
2023-02-26T14:03:44.159Z,1.2
2023-02-26T14:04:53.876Z,1.5
2023-02-26T14:06:03.592Z,1.4
2023-02-26T14:07:13.291Z,1
2023-02-26T14:08:22.975Z,0.9
2023-02-26T14:09:31.672Z,0.9
2023-02-26T14:10:39.309Z,0.9
2023-02-26T14:11:49.010Z,0.8
2023-02-26T14:12:57.668Z,0.7
2023-02-26T14:14:06.371Z,0.7
2023-02-26T14:15:16.044Z,0.8
2023-02-26T14:16:26.045Z,0.6
2023-02-26T14:17:35.439Z,0.9
2023-02-26T14:18:45.114Z,0.7
2023-02-26T14:19:53.781Z,0.9
2023-02-26T14:21:02.482Z,1.3
2023-02-26T14:22:11.167Z,1
2023-02-26T14:23:19.849Z,1.4
2023-02-26T14:24:29.540Z,1.8
2023-02-26T14:25:38.208Z,1.5
2023-02-26T14:26:47.873Z,1.3
2023-02-26T14:27:56.543Z,1.2
2023-02-26T14:29:04.236Z,0.9
2023-02-26T14:30:13.915Z,0.8
2023-02-26T14:31:22.812Z,0.7
2023-02-26T14:32:32.317Z,0.6
2023-02-26T14:33:41.923Z,0.5
2023-02-26T14:34:50.615Z,0.5
2023-02-26T14:35:59.291Z,0.4
2023-02-26T14:37:08.991Z,1.3
2023-02-26T14:38:16.661Z,0.8
2023-02-26T14:39:25.388Z,0.8
2023-02-26T14:40:35.056Z,1.4
2023-02-26T14:41:42.746Z,1.1
2023-02-26T14:42:52.469Z,1.3
2023-02-26T14:44:01.131Z,1.5
2023-02-26T14:45:09.857Z,1.3
2023-02-26T14:46:19.566Z,2
2023-02-26T14:47:28.199Z,1.3
2023-02-26T14:48:37.886Z,1.4
2023-02-26T14:49:47.584Z,1.1
2023-02-26T14:50:56.233Z,1
2023-02-26T14:52:06.500Z,0.7
2023-02-26T14:53:14.154Z,0.5
2023-02-26T14:54:22.849Z,0.4
2023-02-26T14:55:32.513Z,0.6
2023-02-26T14:56:42.195Z,0.6
2023-02-26T14:57:50.855Z,0.6
2023-02-26T14:59:00.603Z,0.8
2023-02-26T15:00:08.291Z,0.7
2023-02-26T15:01:21.509Z,0.6
2023-02-26T15:02:26.800Z,0.7
2023-02-26T15:03:35.315Z,0.8
2023-02-26T15:04:45.099Z,0.9
2023-02-26T15:05:53.806Z,0.9
2023-02-26T15:07:02.511Z,1
2023-02-26T15:08:12.208Z,0.7
2023-02-26T15:09:19.911Z,0.8
2023-02-26T15:10:29.603Z,0.9
2023-02-26T15:11:38.252Z,0.6
2023-02-26T15:12:47.047Z,1.1
2023-02-26T15:13:56.762Z,0.5
2023-02-26T15:15:04.429Z,0.7
2023-02-26T15:16:13.160Z,0.5
2023-02-26T15:17:22.776Z,0.6
2023-02-26T15:18:30.404Z,0.6
2023-02-26T15:19:40.118Z,0.5
2023-02-26T15:20:49.810Z,0.9
2023-02-26T15:21:57.484Z,0.8
2023-02-26T15:23:07.142Z,0.4
2023-02-26T15:24:15.793Z,0.8
2023-02-26T15:25:24.449Z,1.2
2023-02-26T15:26:34.111Z,1.1
2023-02-26T15:27:41.852Z,0.8
2023-02-26T15:28:51.483Z,0.8
2023-02-26T15:30:01.308Z,0.9
2023-02-26T15:31:11.746Z,0.6
2023-02-26T15:32:20.621Z,0.7
2023-02-26T15:33:28.192Z,0.6
2023-02-26T15:34:37.848Z,0.7
2023-02-26T15:35:47.558Z,0.6
2023-02-26T15:36:57.276Z,0.7
2023-02-26T15:38:06.928Z,0.7
2023-02-26T15:39:15.612Z,0.7
2023-02-26T15:40:25.364Z,0.7
2023-02-26T15:41:34.971Z,1.4
2023-02-26T15:42:44.621Z,0.8
2023-02-26T15:43:53.297Z,0.6
2023-02-26T15:45:03.011Z,0.8
2023-02-26T15:46:11.700Z,0.5
2023-02-26T15:47:21.318Z,0.7
2023-02-26T15:48:29.981Z,0.7
2023-02-26T15:49:38.658Z,0.6
2023-02-26T15:50:48.485Z,0.7
2023-02-26T15:51:58.155Z,0.9
2023-02-26T15:53:07.887Z,0.7
2023-02-26T15:54:17.565Z,0.8
2023-02-26T15:55:25.309Z,1.1
2023-02-26T15:56:34.955Z,0.9
2023-02-26T15:57:44.630Z,0.7
2023-02-26T15:58:54.287Z,0.7
2023-02-26T16:00:03.985Z,0.9
2023-02-26T16:01:13.689Z,0.7
2023-02-26T16:02:22.360Z,0.8
2023-02-26T16:03:33.081Z,0.8
2023-02-26T16:04:40.668Z,0.8
2023-02-26T16:05:50.414Z,0.7
2023-02-26T16:06:59.091Z,0.9
2023-02-26T16:08:06.877Z,1.1
2023-02-26T16:09:16.592Z,0.9
2023-02-26T16:10:26.279Z,0.9
2023-02-26T16:11:35.968Z,0.8
2023-02-26T16:12:45.664Z,1
2023-02-26T16:13:53.335Z,1
2023-02-26T16:15:03.026Z,0.9
2023-02-26T16:16:12.841Z,1.4
2023-02-26T16:17:21.522Z,1.1
2023-02-26T16:18:31.221Z,0.9
2023-02-26T16:19:38.896Z,1.3
2023-02-26T16:20:48.631Z,0.9
2023-02-26T16:21:58.484Z,1
2023-02-26T16:23:07.189Z,1
2023-02-26T16:24:16.976Z,0.9
2023-02-26T16:25:26.676Z,1
2023-02-26T16:26:35.392Z,1
2023-02-26T16:27:45.049Z,1
2023-02-26T16:28:54.785Z,1.1
2023-02-26T16:30:03.493Z,1.2
2023-02-26T16:31:13.416Z,1.2
2023-02-26T16:32:22.007Z,1.1
2023-02-26T16:33:29.678Z,1.3
2023-02-26T16:34:39.355Z,1.3
2023-02-26T16:35:49.056Z,0.9
2023-02-26T16:36:57.733Z,1.2
2023-02-26T16:38:07.437Z,0.9
2023-02-26T16:39:16.143Z,0.8
2023-02-26T16:40:24.921Z,1
2023-02-26T16:41:34.615Z,1
2023-02-26T16:42:42.276Z,0.8
2023-02-26T16:43:51.977Z,0.9
2023-02-26T16:45:00.674Z,0.8
2023-02-26T16:46:10.416Z,0.8
2023-02-26T16:47:20.104Z,1
2023-02-26T16:48:28.788Z,0.6
2023-02-26T16:49:38.526Z,0.9
2023-02-26T16:50:48.313Z,0.9
2023-02-26T16:51:58.041Z,0.7
2023-02-26T16:53:07.730Z,0.5
2023-02-26T16:54:16.404Z,0.7
2023-02-26T16:55:26.062Z,0.8
2023-02-26T16:56:35.775Z,1
2023-02-26T16:57:45.493Z,1.1
2023-02-26T16:58:55.139Z,0.9
2023-02-26T17:00:04.800Z,0.8
2023-02-26T17:01:13.558Z,0.7
2023-02-26T17:02:23.189Z,0.8
2023-02-26T17:03:31.873Z,0.8
2023-02-26T17:04:40.531Z,0.9
2023-02-26T17:05:49.214Z,0.9
2023-02-26T17:06:58.925Z,0.7
2023-02-26T17:08:08.688Z,0.6
2023-02-26T17:09:17.351Z,0.8
2023-02-26T17:10:25.026Z,0.8
2023-02-26T17:11:34.769Z,0.9
2023-02-26T17:12:42.434Z,0.8
2023-02-26T17:13:52.151Z,1
2023-02-26T17:15:01.966Z,0.8
2023-02-26T17:16:10.623Z,0.5
2023-02-26T17:17:20.336Z,0.8
2023-02-26T17:18:29.014Z,0.8
2023-02-26T17:19:37.880Z,0.7
2023-02-26T17:20:47.632Z,0.6
2023-02-26T17:21:56.341Z,0.7
2023-02-26T17:23:05.028Z,0.7
2023-02-26T17:24:14.795Z,0.7
2023-02-26T17:25:23.451Z,0.8
2023-02-26T17:26:33.184Z,0.7
2023-02-26T17:27:41.834Z,0.6
2023-02-26T17:28:50.502Z,0.5
2023-02-26T17:30:00.224Z,0.6
2023-02-26T17:31:08.916Z,0.7
2023-02-26T17:32:18.651Z,0.9
2023-02-26T17:33:28.233Z,0.6
2023-02-26T17:34:36.979Z,0.7
2023-02-26T17:35:46.712Z,0.6
2023-02-26T17:36:55.506Z,0.5
2023-02-26T17:38:04.196Z,0.8
2023-02-26T17:39:13.919Z,0.8
2023-02-26T17:40:21.626Z,0.6
2023-02-26T17:41:31.290Z,0.7
2023-02-26T17:42:41.943Z,1
2023-02-26T17:43:50.821Z,1
2023-02-26T17:44:59.569Z,1
2023-02-26T17:46:09.333Z,0.8
2023-02-26T17:47:18.089Z,1.1
2023-02-26T17:48:27.788Z,0.9
2023-02-26T17:49:37.509Z,0.7
2023-02-26T17:50:47.241Z,1
2023-02-26T17:51:56.921Z,0.8
2023-02-26T17:53:06.669Z,0.9
2023-02-26T17:54:16.385Z,0.9
2023-02-26T17:55:25.168Z,1
2023-02-26T17:56:33.865Z,0.8
2023-02-26T17:57:43.544Z,1
2023-02-26T17:58:51.212Z,0.8
2023-02-26T18:00:00.932Z,1
2023-02-26T18:01:10.672Z,0.9
2023-02-26T18:02:20.342Z,0.9
2023-02-26T18:03:29.997Z,0.7
2023-02-26T18:04:38.811Z,0.9
2023-02-26T18:05:47.394Z,0.8
2023-02-26T18:06:57.091Z,0.9
2023-02-26T18:08:04.784Z,0.8
2023-02-26T18:09:14.498Z,0.6
2023-02-26T18:10:25.063Z,0.6
2023-02-26T18:11:32.894Z,0.7
2023-02-26T18:12:42.585Z,0.6
2023-02-26T18:13:51.247Z,0.6
2023-02-26T18:14:58.948Z,0.7
2023-02-26T18:16:08.648Z,0.5
2023-02-26T18:17:17.316Z,0.5
2023-02-26T18:18:26.068Z,0.9
2023-02-26T18:19:35.713Z,0.9
2023-02-26T18:20:45.445Z,0.7
2023-02-26T18:21:55.215Z,0.7
2023-02-26T18:23:03.869Z,0.6
2023-02-26T18:24:12.541Z,0.9
2023-02-26T18:25:22.249Z,0.8
2023-02-26T18:26:28.917Z,0.7
2023-02-26T18:27:36.586Z,0.8
2023-02-26T18:28:46.263Z,0.6
2023-02-26T18:29:55.980Z,1.2
2023-02-26T18:31:03.753Z,0.6
2023-02-26T18:32:13.464Z,0.8
2023-02-26T18:33:23.089Z,0.7
2023-02-26T18:34:31.795Z,1
2023-02-26T18:35:41.456Z,0.9
2023-02-26T18:36:51.137Z,1.3
2023-02-26T18:38:00.828Z,0.6
2023-02-26T18:39:09.494Z,0.8
2023-02-26T18:40:18.164Z,0.7
2023-02-26T18:41:28.016Z,0.6
2023-02-26T18:42:38.361Z,0.7
2023-02-26T18:43:48.076Z,0.9
2023-02-26T18:44:57.962Z,0.6
2023-02-26T18:46:06.709Z,0.7
2023-02-26T18:47:16.403Z,0.9
2023-02-26T18:48:26.069Z,0.7
2023-02-26T18:49:35.785Z,0.5
2023-02-26T18:50:45.454Z,0.9
2023-02-26T18:51:54.111Z,0.8
2023-02-26T18:53:02.819Z,0.8
2023-02-26T18:54:12.497Z,0.7
2023-02-26T18:55:21.178Z,0.8
2023-02-26T18:56:30.859Z,0.9
2023-02-26T18:57:39.566Z,0.6
2023-02-26T18:58:47.231Z,0.5
2023-02-26T18:59:56.928Z,0.6
2023-02-26T19:01:04.643Z,0.7
2023-02-26T19:02:14.380Z,0.9
2023-02-26T19:03:24.113Z,0.7
2023-02-26T19:04:32.720Z,0.8
2023-02-26T19:05:42.424Z,0.8
2023-02-26T19:06:52.186Z,0.7
2023-02-26T19:07:59.898Z,0.9
2023-02-26T19:09:09.566Z,0.7
2023-02-26T19:10:17.333Z,1.1
2023-02-26T19:11:26.514Z,0.8
2023-02-26T19:12:35.827Z,0.7
2023-02-26T19:13:45.623Z,0.6
2023-02-26T19:14:55.203Z,0.8
2023-02-26T19:16:04.048Z,0.8
2023-02-26T19:17:12.628Z,0.7
2023-02-26T19:18:22.342Z,0.4
2023-02-26T19:19:32.031Z,0.6
2023-02-26T19:20:40.722Z,0.8
2023-02-26T19:21:50.440Z,1
2023-02-26T19:22:59.128Z,0.8
2023-02-26T19:24:08.798Z,0.6
2023-02-26T19:25:18.460Z,1.1
2023-02-26T19:26:28.172Z,1.2
2023-02-26T19:27:36.868Z,0.6
2023-02-26T19:28:46.542Z,0.8
2023-02-26T19:29:55.224Z,0.7
2023-02-26T19:31:03.955Z,1.3
2023-02-26T19:32:11.723Z,0.7
2023-02-26T19:33:21.225Z,0.7
2023-02-26T19:34:29.893Z,0.8
2023-02-26T19:35:38.619Z,0.9
2023-02-26T19:36:48.526Z,0.6
2023-02-26T19:37:58.086Z,0.8
2023-02-26T19:39:06.730Z,1.3
2023-02-26T19:40:16.424Z,1
2023-02-26T19:41:24.233Z,0.9
2023-02-26T19:42:33.710Z,1
2023-02-26T19:43:42.385Z,0.7
2023-02-26T19:44:52.064Z,0.7
2023-02-26T19:46:01.795Z,0.6
2023-02-26T19:47:09.445Z,0.6
2023-02-26T19:48:18.172Z,0.7
2023-02-26T19:49:27.923Z,0.8
2023-02-26T19:50:36.548Z,0.6
2023-02-26T19:51:46.237Z,0.7
2023-02-26T19:52:54.922Z,0.8
2023-02-26T19:54:04.683Z,0.7
2023-02-26T19:55:14.351Z,0.8
2023-02-26T19:56:23.029Z,0.6
2023-02-26T19:57:32.714Z,1.1
2023-02-26T19:58:42.502Z,1
2023-02-26T19:59:51.182Z,1.2
2023-02-26T20:01:00.855Z,0.9
2023-02-26T20:02:09.677Z,1
2023-02-26T20:03:18.258Z,0.7
2023-02-26T20:04:27.917Z,1.1
2023-02-26T20:05:36.705Z,0.8
2023-02-26T20:06:45.380Z,0.6
2023-02-26T20:07:55.113Z,0.9
2023-02-26T20:09:03.866Z,0.9
2023-02-26T20:10:13.594Z,1.3
2023-02-26T20:11:22.278Z,0.9
2023-02-26T20:12:31.000Z,0.9
2023-02-26T20:13:40.672Z,0.8
2023-02-26T20:14:49.343Z,0.9
2023-02-26T20:15:59.006Z,0.7
2023-02-26T20:17:08.656Z,0.7
2023-02-26T20:18:16.383Z,1.2
2023-02-26T20:19:26.058Z,1.3
2023-02-26T20:20:35.736Z,0.7
2023-02-26T20:21:43.411Z,1.2
2023-02-26T20:22:53.080Z,1
2023-02-26T20:24:01.823Z,0.9
2023-02-26T20:25:11.613Z,1
2023-02-26T20:26:21.260Z,0.8
2023-02-26T20:27:30.888Z,0.9
2023-02-26T20:28:38.588Z,0.7
2023-02-26T20:29:47.264Z,0.9
2023-02-26T20:30:56.053Z,0.9
2023-02-26T20:32:05.903Z,1
2023-02-26T20:33:15.528Z,0.7
2023-02-26T20:34:24.094Z,0.5
2023-02-26T20:35:33.822Z,0.9
2023-02-26T20:36:42.468Z,0.6
2023-02-26T20:37:51.153Z,0.5
2023-02-26T20:39:00.836Z,0.8
2023-02-26T20:40:08.506Z,0.6
2023-02-26T20:41:18.199Z,0.8
2023-02-26T20:42:27.941Z,1.3
2023-02-26T20:43:35.568Z,0.7
2023-02-26T20:44:45.239Z,1
2023-02-26T20:45:54.917Z,1.1
2023-02-26T20:47:03.609Z,0.8
2023-02-26T20:48:13.298Z,0.6
2023-02-26T20:49:22.020Z,1.1
2023-02-26T20:50:30.688Z,0.8
2023-02-26T20:51:40.364Z,1.1
2023-02-26T20:52:49.024Z,0.9
2023-02-26T20:53:58.726Z,0.9
2023-02-26T20:55:08.419Z,0.9
2023-02-26T20:56:17.065Z,0.9
2023-02-26T20:57:26.729Z,0.8
2023-02-26T20:58:36.428Z,1.2
2023-02-26T20:59:45.109Z,0.9
2023-02-26T21:00:54.887Z,0.7